| time (UTC) | temp F | wind direction | speed knots | gust knots | rain 1hr in | rain 24hr in | rain mn in | humidity % | barometer mb |
| 20260506160700 | 80 | 183 | 11.3 | 13.0 | 0.00 | 0.00 | 0.00 | 61 | 1015.4 |
| 20260506160157 | 80 | 247 | 8.7 | 11.3 | 0.00 | 0.00 | 0.00 | 60 | 1015.3 |
| 20260506155655 | 79 | 242 | 10.4 | 11.3 | 0.00 | 0.00 | 0.00 | 63 | 1015.6 |
| 20260506155152 | 77 | 207 | 12.2 | 17.4 | 0.00 | 0.00 | 0.00 | 67 | 1015.7 |
| 20260506153254 | 77 | 197 | 6.1 | 7.8 | 0.00 | 0.00 | 0.00 | 67 | 1015.6 |
| 20260506152751 | 77 | 232 | 8.7 | 9.6 | 0.00 | 0.00 | 0.00 | 66 | 1015.6 |
| 20260506152248 | 77 | 244 | 7.0 | 7.8 | 0.00 | 0.00 | 0.00 | 68 | 1015.4 |
| 20260506151747 | 77 | 252 | 7.8 | 9.6 | 0.00 | 0.00 | 0.00 | 67 | 1015.5 |
| 20260506151243 | 77 | 213 | 10.4 | 12.2 | 0.00 | 0.00 | 0.00 | 67 | 1015.3 |
| 20260506150740 | 77 | 226 | 7.0 | 7.8 | 0.00 | 0.00 | 0.00 | 66 | 1015.6 |
| 20260506150237 | 75 | 239 | 9.6 | 9.6 | 0.00 | 0.00 | 0.00 | 69 | 1015.4 |
| 20260506145734 | 76 | 221 | 8.7 | 12.2 | 0.00 | 0.00 | 0.00 | 68 | 1015.7 |
| 20260506145230 | 76 | 254 | 9.6 | 13.9 | 0.00 | 0.00 | 0.00 | 68 | 1015.9 |
| 20260506144728 | 75 | 253 | 11.3 | 13.9 | 0.00 | 0.00 | 0.00 | 68 | 1015.8 |
| 20260506144225 | 75 | 222 | 12.2 | 15.6 | 0.00 | 0.00 | 0.00 | 68 | 1015.8 |
| 20260506143722 | 75 | 221 | 7.8 | 9.6 | 0.00 | 0.00 | 0.00 | 68 | 1015.8 |
| 20260506143220 | 75 | 222 | 9.6 | 12.2 | 0.00 | 0.00 | 0.00 | 69 | 1015.3 |
| 20260506142718 | 75 | 213 | 9.6 | 13.0 | 0.00 | 0.00 | 0.00 | 69 | 1015.6 |
| 20260506142216 | 75 | 226 | 7.0 | 7.8 | 0.00 | 0.00 | 0.00 | 70 | 1015.6 |
| 20260506141714 | 75 | 217 | 7.8 | 9.6 | 0.00 | 0.00 | 0.00 | 69 | 1015.3 |
| 20260506141212 | 75 | 194 | 7.0 | 7.0 | 0.00 | 0.00 | 0.00 | 69 | 1015.3 |
| 20260506140709 | 75 | 196 | 6.1 | 7.8 | 0.00 | 0.00 | 0.00 | 70 | 1015.1 |
| 20260506140206 | 74 | 213 | 9.6 | 12.2 | 0.00 | 0.00 | 0.00 | 70 | 1015.2 |
| 20260506135703 | 74 | 226 | 9.6 | 13.0 | 0.00 | 0.00 | 0.00 | 70 | 1015.2 |
| 20260506135159 | 74 | 213 | 7.8 | 8.7 | 0.00 | 0.00 | 0.00 | 70 | 1015.2 |
| 20260506134656 | 75 | 228 | 7.8 | 9.6 | 0.00 | 0.00 | 0.00 | 69 | 1015.0 |
| 20260506134152 | 74 | 200 | 8.7 | 11.3 | 0.00 | 0.00 | 0.00 | 70 | 1015.3 |
| 20260506133649 | 74 | 205 | 6.1 | 7.8 | 0.00 | 0.00 | 0.00 | 71 | 1015.3 |
| 20260506133146 | 74 | 217 | 10.4 | 13.0 | 0.00 | 0.00 | 0.00 | 71 | 1015.3 |
| 20260506132643 | 74 | 191 | 6.1 | 9.6 | 0.00 | 0.00 | 0.00 | 71 | 1015.4 |
| 20260506132140 | 74 | 232 | 6.1 | 7.0 | 0.00 | 0.00 | 0.00 | 71 | 1015.1 |
| 20260506131638 | 73 | 237 | 6.1 | 7.8 | 0.00 | 0.00 | 0.00 | 71 | 1014.9 |
| 20260506131134 | 73 | 205 | 9.6 | 11.3 | 0.00 | 0.00 | 0.00 | 71 | 1015.4 |
| 20260506130630 | 73 | 207 | 7.0 | 8.7 | 0.00 | 0.00 | 0.00 | 72 | 1015.4 |
| 20260506130128 | 73 | 195 | 8.7 | 11.3 | 0.00 | 0.00 | 0.00 | 71 | 1015.2 |
| 20260506125626 | 73 | 207 | 9.6 | 13.0 | 0.00 | 0.00 | 0.00 | 73 | 1015.4 |
| 20260506125123 | 72 | 213 | 7.0 | 7.8 | 0.00 | 0.00 | 0.00 | 74 | 1015.2 |
| 20260506124621 | 72 | 212 | 4.3 | 6.1 | 0.00 | 0.00 | 0.00 | 76 | 1015.1 |
| 20260506124119 | 72 | 189 | 9.6 | 12.2 | 0.00 | 0.00 | 0.00 | 75 | 1015.3 |
| 20260506123616 | 71 | 226 | 7.0 | 7.8 | 0.00 | 0.00 | 0.00 | 77 | 1015.6 |
| 20260506123115 | 70 | 228 | 7.8 | 8.7 | 0.00 | 0.00 | 0.00 | 78 | 1015.5 |
| 20260506122611 | 70 | 203 | 4.3 | 5.2 | 0.00 | 0.00 | 0.00 | 79 | 1015.4 |
| 20260506122109 | 69 | 186 | 4.3 | 7.8 | 0.00 | 0.00 | 0.00 | 79 | 1015.4 |
| 20260506121606 | 68 | 183 | 6.1 | 7.0 | 0.00 | 0.00 | 0.00 | 80 | 1015.6 |
| 20260506121102 | 68 | 192 | 4.3 | 6.1 | 0.00 | 0.00 | 0.00 | 81 | 1015.5 |
| 20260506120601 | 68 | 179 | 5.2 | 6.1 | 0.00 | 0.00 | 0.00 | 81 | 1015.4 |
| 20260506120057 | 68 | 177 | 4.3 | 5.2 | 0.00 | 0.00 | 0.00 | 82 | 1015.5 |
| 20260506115556 | 67 | 170 | 7.0 | 8.7 | 0.00 | 0.00 | 0.00 | 81 | 1015.6 |
| 20260506115054 | 68 | 203 | 6.1 | 7.8 | 0.00 | 0.00 | 0.00 | 82 | 1015.5 |
| 20260506114551 | 67 | 202 | 6.1 | 7.0 | 0.00 | 0.00 | 0.00 | 82 | 1015.6 |
| 20260506114049 | 67 | 174 | 6.1 | 7.0 | 0.00 | 0.00 | 0.00 | 82 | 1015.5 |
| 20260506113547 | 66 | 198 | 4.3 | 5.2 | 0.00 | 0.00 | 0.00 | 83 | 1015.6 |
| 20260506113044 | 66 | 213 | 6.1 | 7.8 | 0.00 | 0.00 | 0.00 | 83 | 1015.5 |
| 20260506112540 | 65 | 176 | 6.1 | 7.8 | 0.00 | 0.00 | 0.00 | 84 | 1015.5 |
| 20260506112038 | 65 | 196 | 3.5 | 4.3 | 0.00 | 0.00 | 0.00 | 84 | 1015.4 |
| 20260506111536 | 64 | 189 | 5.2 | 7.0 | 0.00 | 0.00 | 0.00 | 84 | 1015.4 |
| 20260506111032 | 64 | 186 | 2.6 | 2.6 | 0.00 | 0.00 | 0.00 | 85 | 1015.6 |
| 20260506110530 | 64 | 210 | 4.3 | 5.2 | 0.00 | 0.00 | 0.00 | 85 | 1015.3 |
| 20260506110027 | 63 | 176 | 3.5 | 4.3 | 0.00 | 0.00 | 0.00 | 86 | 1015.5 |
| 20260506105523 | 63 | 188 | 2.6 | 2.6 | 0.00 | 0.00 | 0.00 | 86 | 1015.3 |
| 20260506105021 | 62 | 179 | 2.6 | 2.6 | 0.00 | 0.00 | 0.00 | 86 | 1015.1 |
| 20260506104519 | 63 | 166 | 2.6 | 2.6 | 0.00 | 0.00 | 0.00 | 86 | 1015.2 |
| 20260506104016 | 63 | 186 | 4.3 | 5.2 | 0.00 | 0.00 | 0.00 | 86 | 1015.3 |
| 20260506103513 | 62 | 173 | 4.3 | 6.1 | 0.00 | 0.00 | 0.00 | 86 | 1015.3 |
| 20260506103010 | 62 | 196 | 3.5 | 4.3 | 0.00 | 0.00 | 0.00 | 86 | 1015.2 |
| 20260506102508 | 62 | 160 | 5.2 | 6.1 | 0.00 | 0.00 | 0.00 | 87 | 1015.2 |
| 20260506102005 | 62 | 184 | 3.5 | 4.3 | 0.00 | 0.00 | 0.00 | 86 | 1015.1 |
| 20260506101502 | 62 | 182 | 2.6 | 2.6 | 0.00 | 0.00 | 0.00 | 87 | 1015.0 |
| 20260506100959 | 62 | 152 | 4.3 | 4.3 | 0.00 | 0.00 | 0.00 | 87 | 1015.0 |
| 20260506100457 | 62 | 185 | 3.5 | 4.3 | 0.00 | 0.00 | 0.00 | 87 | 1014.9 |
| 20260506095955 | 62 | 172 | 1.7 | 1.7 | 0.00 | 0.00 | 0.00 | 87 | 1014.9 |
| 20260506095454 | 62 | 173 | 0.9 | 0.9 | 0.00 | 0.00 | 0.00 | 87 | 1014.9 |
| 20260506094949 | 61 | 158 | 2.6 | 2.6 | 0.00 | 0.00 | 0.00 | 87 | 1014.9 |
| 20260506094448 | 61 | 167 | 1.7 | 1.7 | 0.00 | 0.00 | 0.00 | 87 | 1014.9 |
| 20260506093945 | 61 | 168 | 2.6 | 2.6 | 0.00 | 0.00 | 0.00 | 87 | 1015.0 |
| 20260506093443 | 62 | 158 | 1.7 | 1.7 | 0.00 | 0.00 | 0.00 | 87 | 1015.1 |
| 20260506092940 | 62 | 161 | 1.7 | 1.7 | 0.00 | 0.00 | 0.00 | 87 | 1015.1 |
| 20260506092438 | 62 | 173 | 1.7 | 1.7 | 0.00 | 0.00 | 0.00 | 87 | 1015.3 |
| 20260506091934 | 62 | 209 | 1.7 | 1.7 | 0.00 | 0.00 | 0.00 | 87 | 1015.2 |
| 20260506091433 | 62 | 151 | 1.7 | 1.7 | 0.00 | 0.00 | 0.00 | 87 | 1015.4 |
| 20260506090930 | 62 | 161 | 1.7 | 1.7 | 0.00 | 0.00 | 0.00 | 86 | 1015.4 |
| 20260506090427 | 62 | 165 | 1.7 | 1.7 | 0.00 | 0.00 | 0.00 | 86 | 1015.5 |
| 20260506085924 | 62 | 152 | 1.7 | 2.6 | 0.00 | 0.00 | 0.00 | 87 | 1015.8 |
| 20260506085420 | 62 | 194 | 2.6 | 2.6 | 0.00 | 0.00 | 0.00 | 87 | 1015.6 |
| 20260506084917 | 62 | 175 | 1.7 | 1.7 | 0.00 | 0.00 | 0.00 | 87 | 1015.3 |
| 20260506084414 | 62 | 183 | 2.6 | 2.6 | 0.00 | 0.00 | 0.00 | 87 | 1015.2 |
| 20260506083910 | 62 | 155 | 2.6 | 2.6 | 0.00 | 0.00 | 0.00 | 87 | 1015.4 |
| 20260506083408 | 62 | 177 | 2.6 | 2.6 | 0.00 | 0.00 | 0.00 | 87 | 1015.2 |
| 20260506082905 | 61 | 177 | 1.7 | 1.7 | 0.00 | 0.00 | 0.00 | 87 | 1015.5 |
| 20260506082401 | 61 | 171 | 2.6 | 2.6 | 0.00 | 0.00 | 0.00 | 87 | 1015.3 |
| 20260506081857 | 61 | 168 | 1.7 | 1.7 | 0.00 | 0.00 | 0.00 | 87 | 1015.3 |
| 20260506081356 | 61 | 186 | 1.7 | 1.7 | 0.00 | 0.00 | 0.00 | 87 | 1015.4 |
| 20260506080853 | 61 | 201 | 2.6 | 2.6 | 0.00 | 0.00 | 0.00 | 87 | 1015.3 |
| 20260506080349 | 61 | 175 | 1.7 | 1.7 | 0.00 | 0.00 | 0.00 | 87 | 1015.2 |
| 20260506073333 | 62 | 174 | 2.6 | 4.3 | 0.00 | 0.00 | 0.00 | 87 | 1015.4 |
| 20260506072830 | 62 | 160 | 2.6 | 4.3 | 0.00 | 0.00 | 0.00 | 87 | 1015.4 |
| 20260506072328 | 62 | 166 | 2.6 | 2.6 | 0.00 | 0.00 | 0.00 | 87 | 1015.3 |
| 20260506071825 | 62 | 157 | 2.6 | 2.6 | 0.00 | 0.00 | 0.00 | 87 | 1015.2 |
| 20260506071323 | 62 | 215 | 2.6 | 2.6 | 0.00 | 0.00 | 0.00 | 87 | 1015.3 |
| 20260506070820 | 62 | 171 | 2.6 | 2.6 | 0.00 | 0.00 | 0.00 | 87 | 1015.3 |
| 20260506070317 | 62 | 196 | 1.7 | 1.7 | 0.00 | 0.00 | 0.00 | 87 | 1015.4 |
| 20260506062254 | 62 | 162 | 1.7 | 1.7 | 0.00 | 0.00 | 0.00 | 85 | 1015.5 |
| 20260506061750 | 62 | 162 | 1.7 | 1.7 | 0.00 | 0.00 | 0.00 | 85 | 1015.7 |
| 20260506061247 | 63 | 169 | 2.6 | 2.6 | 0.00 | 0.00 | 0.00 | 85 | 1015.7 |
| 20260506060745 | 63 | 199 | 3.5 | 4.3 | 0.00 | 0.00 | 0.00 | 85 | 1015.8 |
| 20260506060243 | 63 | 166 | 1.7 | 1.7 | 0.00 | 0.00 | 0.00 | 85 | 1016.1 |
| 20260506051209 | 64 | 185 | 3.5 | 5.2 | 0.00 | 0.00 | 0.00 | 83 | 1016.5 |
| 20260506050707 | 64 | 170 | 2.6 | 2.6 | 0.00 | 0.00 | 0.00 | 83 | 1016.5 |
| 20260506050204 | 64 | 181 | 3.5 | 5.2 | 0.00 | 0.00 | 0.00 | 84 | 1016.4 |
| 20260506044655 | 64 | 158 | 2.6 | 4.3 | 0.00 | 0.00 | 0.00 | 84 | 1016.4 |
| 20260506044151 | 63 | 186 | 3.5 | 4.3 | 0.00 | 0.00 | 0.00 | 84 | 1016.4 |
| 20260506043649 | 64 | 161 | 1.7 | 2.6 | 0.00 | 0.00 | 0.00 | 84 | 1016.6 |
| 20260506043147 | 64 | 159 | 3.5 | 4.3 | 0.00 | 0.00 | 0.00 | 84 | 1016.7 |
| 20260506042646 | 64 | 174 | 2.6 | 2.6 | 0.00 | 0.00 | 0.00 | 83 | 1016.7 |
| 20260506042143 | 64 | 167 | 2.6 | 2.6 | 0.00 | 0.00 | 0.00 | 83 | 1016.8 |
| 20260506041642 | 64 | 175 | 3.5 | 5.2 | 0.00 | 0.00 | 0.00 | 83 | 1016.8 |
| 20260506041138 | 64 | 195 | 2.6 | 2.6 | 0.00 | 0.00 | 0.00 | 82 | 1016.7 |
| 20260506040635 | 64 | 183 | 4.3 | 5.2 | 0.00 | 0.00 | 0.00 | 83 | 1016.7 |
| 20260506040132 | 64 | 199 | 5.2 | 7.0 | 0.00 | 0.00 | 0.00 | 82 | 1016.7 |
| 20260506035629 | 64 | 164 | 3.5 | 5.2 | 0.00 | 0.00 | 0.00 | 82 | 1016.6 |
| 20260506035126 | 64 | 161 | 2.6 | 2.6 | 0.00 | 0.00 | 0.00 | 82 | 1016.7 |
| 20260506034623 | 64 | 174 | 3.5 | 4.3 | 0.00 | 0.00 | 0.00 | 82 | 1016.7 |
| 20260506034120 | 64 | 182 | 3.5 | 4.3 | 0.00 | 0.00 | 0.00 | 81 | 1016.8 |
| 20260506033617 | 64 | 182 | 4.3 | 6.1 | 0.00 | 0.00 | 0.00 | 81 | 1016.6 |
| 20260506033114 | 64 | 193 | 4.3 | 6.1 | 0.00 | 0.00 | 0.00 | 81 | 1016.7 |
| 20260506032612 | 64 | 218 | 4.3 | 5.2 | 0.00 | 0.00 | 0.00 | 81 | 1016.7 |
| 20260506032108 | 64 | 160 | 4.3 | 5.2 | 0.00 | 0.00 | 0.00 | 80 | 1016.8 |
| 20260506031605 | 64 | 165 | 3.5 | 4.3 | 0.00 | 0.00 | 0.00 | 80 | 1016.7 |
| 20260506031102 | 64 | 157 | 2.6 | 2.6 | 0.00 | 0.00 | 0.00 | 80 | 1016.9 |
| 20260506030601 | 64 | 161 | 3.5 | 4.3 | 0.00 | 0.00 | 0.00 | 80 | 1016.7 |
| 20260506030057 | 64 | 157 | 3.5 | 4.3 | 0.00 | 0.00 | 0.00 | 79 | 1016.9 |
| 20260506025554 | 64 | 162 | 4.3 | 4.3 | 0.00 | 0.00 | 0.00 | 79 | 1016.9 |
| 20260506025050 | 64 | 160 | 2.6 | 2.6 | 0.00 | 0.00 | 0.00 | 79 | 1017.0 |
| 20260506024548 | 64 | 184 | 4.3 | 5.2 | 0.00 | 0.00 | 0.00 | 79 | 1016.9 |
| 20260506024044 | 64 | 189 | 3.5 | 5.2 | 0.00 | 0.00 | 0.00 | 79 | 1017.2 |
| 20260506023540 | 65 | 176 | 2.6 | 2.6 | 0.00 | 0.00 | 0.00 | 78 | 1017.3 |
| 20260506023038 | 65 | 167 | 2.6 | 2.6 | 0.00 | 0.00 | 0.00 | 78 | 1017.2 |
| 20260506022535 | 65 | 162 | 4.3 | 4.3 | 0.00 | 0.00 | 0.00 | 78 | 1017.3 |
| 20260506022033 | 66 | 183 | 4.3 | 5.2 | 0.00 | 0.00 | 0.00 | 77 | 1017.0 |
| 20260506021530 | 66 | 161 | 3.5 | 4.3 | 0.00 | 0.00 | 0.00 | 76 | 1017.0 |
| 20260506021027 | 66 | 203 | 3.5 | 5.2 | 0.00 | 0.00 | 0.00 | 76 | 1017.2 |
| 20260506020525 | 66 | 170 | 4.3 | 6.1 | 0.00 | 0.00 | 0.00 | 75 | 1017.0 |
| 20260506020022 | 67 | 163 | 3.5 | 4.3 | 0.00 | 0.00 | 0.00 | 75 | 1017.1 |
| 20260506015519 | 67 | 174 | 3.5 | 4.3 | 0.00 | 0.00 | 0.00 | 74 | 1016.8 |
| 20260506015016 | 67 | 190 | 3.5 | 4.3 | 0.00 | 0.00 | 0.00 | 75 | 1016.9 |
| 20260506014514 | 67 | 193 | 6.1 | 7.0 | 0.00 | 0.00 | 0.00 | 74 | 1016.6 |
| 20260506014009 | 67 | 184 | 4.3 | 5.2 | 0.00 | 0.00 | 0.00 | 73 | 1016.7 |
| 20260506013507 | 67 | 180 | 4.3 | 4.3 | 0.00 | 0.00 | 0.00 | 73 | 1016.7 |
| 20260506013004 | 67 | 158 | 4.3 | 6.1 | 0.00 | 0.00 | 0.00 | 73 | 1016.7 |
| 20260506012500 | 67 | 201 | 6.1 | 7.8 | 0.00 | 0.00 | 0.00 | 73 | 1016.6 |
| 20260506011957 | 67 | 168 | 4.3 | 6.1 | 0.00 | 0.00 | 0.00 | 72 | 1016.8 |
| 20260506011454 | 68 | 189 | 4.3 | 5.2 | 0.00 | 0.00 | 0.00 | 72 | 1016.4 |
| 20260506010951 | 68 | 166 | 3.5 | 5.2 | 0.00 | 0.00 | 0.00 | 71 | 1016.6 |
| 20260506010450 | 68 | 189 | 6.1 | 7.0 | 0.00 | 0.00 | 0.00 | 71 | 1016.7 |
| 20260506005945 | 68 | 162 | 6.1 | 7.8 | 0.00 | 0.00 | 0.00 | 71 | 1016.5 |
| 20260506005444 | 68 | 168 | 5.2 | 6.1 | 0.00 | 0.00 | 0.00 | 70 | 1016.6 |
| 20260506004938 | 68 | 167 | 4.3 | 7.0 | 0.00 | 0.00 | 0.00 | 70 | 1016.5 |
| 20260506004437 | 68 | 177 | 5.2 | 7.0 | 0.00 | 0.00 | 0.00 | 70 | 1016.4 |
| 20260506003932 | 68 | 177 | 7.0 | 8.7 | 0.00 | 0.00 | 0.00 | 70 | 1016.5 |
| 20260506003429 | 69 | 195 | 3.5 | 6.1 | 0.00 | 0.00 | 0.00 | 69 | 1016.4 |
| 20260506002926 | 69 | 176 | 5.2 | 7.0 | 0.00 | 0.00 | 0.00 | 69 | 1016.6 |
| 20260506002422 | 69 | 208 | 5.2 | 6.1 | 0.00 | 0.00 | 0.00 | 68 | 1016.4 |
| 20260506001917 | 69 | 174 | 4.3 | 7.0 | 0.00 | 0.00 | 0.00 | 68 | 1016.3 |
| 20260506001415 | 69 | 172 | 2.6 | 4.3 | 0.00 | 0.00 | 0.00 | 68 | 1016.4 |
| 20260506000912 | 69 | 189 | 3.5 | 5.2 | 0.00 | 0.00 | 0.00 | 68 | 1016.3 |
| 20260506000409 | 70 | 186 | 3.5 | 4.3 | 0.00 | 0.00 | 0.00 | 67 | 1016.3 |
| 20260505235906 | 70 | 213 | 3.5 | 4.3 | 0.00 | 0.00 | 0.00 | 67 | 1016.5 |
| 20260505235404 | 70 | 221 | 4.3 | 6.1 | 0.00 | 0.00 | 0.00 | 66 | 1016.1 |
| 20260505234900 | 71 | 170 | 4.3 | 7.0 | 0.00 | 0.00 | 0.00 | 66 | 1015.8 |
| 20260505234358 | 71 | 177 | 5.2 | 6.1 | 0.00 | 0.00 | 0.00 | 65 | 1016.1 |
| 20260505233855 | 71 | 187 | 8.7 | 11.3 | 0.00 | 0.00 | 0.00 | 65 | 1015.7 |
| 20260505233353 | 71 | 206 | 6.1 | 7.0 | 0.00 | 0.00 | 0.00 | 64 | 1015.8 |
| 20260505232850 | 71 | 151 | 6.1 | 7.8 | 0.00 | 0.00 | 0.00 | 63 | 1015.8 |
| 20260505232348 | 72 | 189 | 8.7 | 9.6 | 0.00 | 0.00 | 0.00 | 63 | 1016.3 |
| 20260505231844 | 72 | 204 | 7.8 | 8.7 | 0.00 | 0.00 | 0.00 | 62 | 1016.1 |
| 20260505231341 | 72 | 197 | 9.6 | 13.9 | 0.00 | 0.00 | 0.00 | 62 | 1016.0 |
| 20260505230840 | 73 | 172 | 10.4 | 11.3 | 0.00 | 0.00 | 0.00 | 62 | 1015.6 |
| 20260505230337 | 73 | 203 | 6.1 | 7.0 | 0.00 | 0.00 | 0.00 | 62 | 1015.7 |
| 20260505225833 | 73 | 239 | 6.1 | 7.8 | 0.00 | 0.00 | 0.00 | 62 | 1015.6 |
| 20260505225330 | 73 | 207 | 10.4 | 12.2 | 0.00 | 0.00 | 0.00 | 61 | 1015.6 |
| 20260505224825 | 74 | 228 | 11.3 | 13.9 | 0.00 | 0.00 | 0.00 | 60 | 1016.0 |
| 20260505224324 | 74 | 173 | 7.8 | 7.8 | 0.00 | 0.00 | 0.00 | 60 | 1015.6 |
| 20260505223820 | 74 | 178 | 9.6 | 13.0 | 0.00 | 0.00 | 0.00 | 59 | 1015.7 |
| 20260505223317 | 75 | 191 | 6.1 | 7.0 | 0.00 | 0.00 | 0.00 | 60 | 1015.8 |
| 20260505222813 | 75 | 184 | 10.4 | 13.0 | 0.00 | 0.00 | 0.00 | 59 | 1016.0 |
| 20260505222309 | 75 | 200 | 11.3 | 14.8 | 0.00 | 0.00 | 0.00 | 59 | 1015.9 |
| 20260505221807 | 75 | 182 | 7.8 | 8.7 | 0.00 | 0.00 | 0.00 | 58 | 1015.8 |
| 20260505221303 | 75 | 213 | 11.3 | 14.8 | 0.00 | 0.00 | 0.00 | 58 | 1015.8 |
| 20260505220800 | 75 | 205 | 7.0 | 7.8 | 0.00 | 0.00 | 0.00 | 57 | 1016.0 |
| 20260505220257 | 75 | 221 | 8.7 | 12.2 | 0.00 | 0.00 | 0.00 | 58 | 1015.8 |
| 20260505215755 | 76 | 222 | 5.2 | 7.0 | 0.00 | 0.00 | 0.00 | 57 | 1016.0 |
| 20260505215253 | 76 | 203 | 9.6 | 12.2 | 0.00 | 0.00 | 0.00 | 56 | 1015.8 |
| 20260505214750 | 76 | 214 | 10.4 | 13.0 | 0.00 | 0.00 | 0.00 | 56 | 1015.8 |
| 20260505214248 | 76 | 176 | 9.6 | 12.2 | 0.00 | 0.00 | 0.00 | 56 | 1015.6 |
| 20260505213745 | 77 | 179 | 8.7 | 9.6 | 0.00 | 0.00 | 0.00 | 55 | 1015.7 |
| 20260505213242 | 76 | 197 | 7.8 | 9.6 | 0.00 | 0.00 | 0.00 | 56 | 1015.7 |
| 20260505212738 | 76 | 212 | 8.7 | 11.3 | 0.00 | 0.00 | 0.00 | 56 | 1015.6 |
| 20260505212236 | 76 | 195 | 10.4 | 15.6 | 0.00 | 0.00 | 0.00 | 56 | 1015.5 |
| 20260505211732 | 77 | 222 | 5.2 | 7.0 | 0.00 | 0.00 | 0.00 | 55 | 1015.5 |
| 20260505211230 | 77 | 185 | 7.0 | 8.7 | 0.00 | 0.00 | 0.00 | 54 | 1015.6 |
| 20260505210726 | 77 | 220 | 9.6 | 13.0 | 0.00 | 0.00 | 0.00 | 54 | 1015.7 |
| 20260505210223 | 77 | 202 | 7.8 | 11.3 | 0.00 | 0.00 | 0.00 | 53 | 1015.5 |
| 20260505205720 | 78 | 198 | 6.1 | 7.0 | 0.00 | 0.00 | 0.00 | 54 | 1015.6 |
| 20260505205218 | 78 | 235 | 7.0 | 7.8 | 0.00 | 0.00 | 0.00 | 53 | 1015.6 |
| 20260505204715 | 79 | 176 | 10.4 | 12.2 | 0.00 | 0.00 | 0.00 | 52 | 1015.4 |
| 20260505204213 | 78 | 206 | 10.4 | 12.2 | 0.00 | 0.00 | 0.00 | 52 | 1015.7 |
| 20260505203710 | 78 | 201 | 8.7 | 9.6 | 0.00 | 0.00 | 0.00 | 52 | 1015.7 |
| 20260505203206 | 78 | 173 | 11.3 | 13.0 | 0.00 | 0.00 | 0.00 | 53 | 1015.5 |
| 20260505202702 | 78 | 170 | 10.4 | 14.8 | 0.00 | 0.00 | 0.00 | 52 | 1015.5 |
| 20260505202158 | 79 | 205 | 9.6 | 12.2 | 0.00 | 0.00 | 0.00 | 52 | 1015.5 |
| 20260505201655 | 80 | 214 | 10.4 | 12.2 | 0.00 | 0.00 | 0.00 | 51 | 1015.5 |
| 20260505201153 | 80 | 178 | 13.9 | 15.6 | 0.00 | 0.00 | 0.00 | 50 | 1015.6 |
| 20260505200651 | 80 | 165 | 9.6 | 13.0 | 0.00 | 0.00 | 0.00 | 52 | 1015.6 |
| 20260505200147 | 80 | 200 | 9.6 | 11.3 | 0.00 | 0.00 | 0.00 | 50 | 1015.6 |
| 20260505195643 | 80 | 161 | 10.4 | 13.0 | 0.00 | 0.00 | 0.00 | 50 | 1015.9 |
| 20260505195141 | 80 | 191 | 8.7 | 11.3 | 0.00 | 0.00 | 0.00 | 49 | 1015.8 |
| 20260505194638 | 80 | 246 | 6.1 | 7.8 | 0.00 | 0.00 | 0.00 | 48 | 1016.1 |
| 20260505194134 | 80 | 214 | 8.7 | 11.3 | 0.00 | 0.00 | 0.00 | 48 | 1016.0 |
| 20260505193631 | 81 | 209 | 7.8 | 11.3 | 0.00 | 0.00 | 0.00 | 49 | 1015.9 |
| 20260505193128 | 80 | 182 | 8.7 | 11.3 | 0.00 | 0.00 | 0.00 | 48 | 1016.3 |
| 20260505192626 | 80 | 209 | 8.7 | 12.2 | 0.00 | 0.00 | 0.00 | 49 | 1016.0 |
| 20260505192123 | 80 | 217 | 8.7 | 11.3 | 0.00 | 0.00 | 0.00 | 44 | 1016.4 |
| 20260505191622 | 81 | 174 | 10.4 | 13.9 | 0.00 | 0.00 | 0.00 | 45 | 1016.3 |
| 20260505191119 | 80 | 250 | 7.0 | 7.8 | 0.00 | 0.00 | 0.00 | 45 | 1016.3 |
| 20260505190615 | 80 | 167 | 11.3 | 12.2 | 0.00 | 0.00 | 0.00 | 45 | 1016.7 |
| 20260505190110 | 80 | 222 | 5.2 | 7.0 | 0.00 | 0.00 | 0.00 | 45 | 1016.5 |
| 20260505185607 | 80 | 190 | 9.6 | 11.3 | 0.00 | 0.00 | 0.00 | 48 | 1016.5 |
| 20260505185103 | 80 | 174 | 8.7 | 9.6 | 0.00 | 0.00 | 0.00 | 48 | 1016.5 |
| 20260505184559 | 80 | 154 | 7.0 | 9.6 | 0.00 | 0.00 | 0.00 | 48 | 1016.5 |
| 20260505184056 | 80 | 180 | 10.4 | 12.2 | 0.00 | 0.00 | 0.00 | 49 | 1016.8 |
| 20260505183553 | 79 | 172 | 8.7 | 12.2 | 0.00 | 0.00 | 0.00 | 45 | 1016.7 |
| 20260505183051 | 80 | 162 | 9.6 | 11.3 | 0.00 | 0.00 | 0.00 | 44 | 1016.7 |
| 20260505182546 | 80 | 199 | 6.1 | 7.8 | 0.00 | 0.00 | 0.00 | 45 | 1016.7 |
| 20260505182043 | 79 | 192 | 4.3 | 7.0 | 0.00 | 0.00 | 0.00 | 46 | 1016.8 |
| 20260505181540 | 79 | 208 | 7.8 | 13.0 | 0.00 | 0.00 | 0.00 | 46 | 1017.0 |
| 20260505181038 | 79 | 155 | 8.7 | 12.2 | 0.00 | 0.00 | 0.00 | 46 | 1016.6 |
| 20260505180533 | 80 | 155 | 9.6 | 11.3 | 0.00 | 0.00 | 0.00 | 48 | 1016.8 |
| 20260505180032 | 79 | 177 | 8.7 | 14.8 | 0.00 | 0.00 | 0.00 | 47 | 1016.7 |
| 20260505175532 | 78 | 202 | 6.1 | 7.0 | 0.00 | 0.00 | 0.00 | 48 | 1016.8 |
| 20260505175029 | 79 | 159 | 9.6 | 11.3 | 0.00 | 0.00 | 0.00 | 48 | 1016.9 |
| 20260505174526 | 80 | 190 | 7.8 | 8.7 | 0.00 | 0.00 | 0.00 | 47 | 1016.9 |
| 20260505174022 | 79 | 231 | 9.6 | 11.3 | 0.00 | 0.00 | 0.00 | 47 | 1016.7 |
| 20260505173519 | 81 | 239 | 6.1 | 7.0 | 0.00 | 0.00 | 0.00 | 44 | 1016.9 |
| 20260505173016 | 79 | 271 | 7.0 | 9.6 | 0.00 | 0.00 | 0.00 | 46 | 1016.9 |
| 20260505172514 | 79 | 230 | 8.7 | 9.6 | 0.00 | 0.00 | 0.00 | 48 | 1016.9 |
| 20260505172009 | 79 | 232 | 7.8 | 9.6 | 0.00 | 0.00 | 0.00 | 46 | 1017.1 |
| 20260505171505 | 79 | 214 | 4.3 | 5.2 | 0.00 | 0.00 | 0.00 | 48 | 1017.1 |
| 20260505171002 | 78 | 228 | 9.6 | 13.9 | 0.00 | 0.00 | 0.00 | 48 | 1017.1 |
| 20260505170459 | 78 | 187 | 9.6 | 9.6 | 0.00 | 0.00 | 0.00 | 49 | 1017.1 |
| 20260505165954 | 78 | 190 | 6.1 | 7.8 | 0.00 | 0.00 | 0.00 | 50 | 1017.3 |
| 20260505165450 | 78 | 189 | 6.1 | 8.7 | 0.00 | 0.00 | 0.00 | 50 | 1017.3 |
| 20260505164946 | 78 | 210 | 8.7 | 9.6 | 0.00 | 0.00 | 0.00 | 49 | 1017.3 |
| 20260505164442 | 77 | 201 | 4.3 | 6.1 | 0.00 | 0.00 | 0.00 | 50 | 1017.6 |
| 20260505163940 | 78 | 213 | 7.0 | 8.7 | 0.00 | 0.00 | 0.00 | 48 | 1017.5 |
| 20260505163439 | 78 | 206 | 7.8 | 8.7 | 0.00 | 0.00 | 0.00 | 49 | 1017.3 |
| 20260505162938 | 78 | 215 | 4.3 | 5.2 | 0.00 | 0.00 | 0.00 | 48 | 1017.5 |
| 20260505162433 | 77 | 199 | 9.6 | 12.2 | 0.00 | 0.00 | 0.00 | 51 | 1017.3 |
| 20260505161930 | 77 | 226 | 7.8 | 8.7 | 0.00 | 0.00 | 0.00 | 49 | 1017.3 |
| 20260505161427 | 78 | 209 | 7.8 | 9.6 | 0.00 | 0.00 | 0.00 | 48 | 1017.6 |